Time;durP1;ratioP1;P1;durP2;ratioP2;P2;SDS_P1;SDS_P2;PMS_P1;PMS_P2;Temp;Humidity;BMP_temperature;BMP_pressure;BME280_temperature;BME280_humidity;BME280_pressure;Samples;Min_cycle;Max_cycle;Signal;HPM_P1;HPM_P2
2022/03/30 00:00:28;;;;;;;;;;;;;;;9.90;100.00;98074.97;5109878;27;19931;-88
2022/03/30 00:02:54;;;;;;;;;;;;;;;9.41;100.00;98077.06;5105779;27;19930;-90
2022/03/30 00:05:19;;;;;;;;;;;;;;;9.27;100.00;98080.22;5106190;27;19920;-89
2022/03/30 00:07:50;;;;;;;;;;;;;;;10.03;100.00;98082.94;5106226;27;20128;-89
2022/03/30 00:10:15;;;;;;;;;;;;;;;8.87;100.00;98070.72;5096230;27;19968;-88
2022/03/30 00:12:41;;;;;;;;;;;;;;;9.66;100.00;98070.88;5080382;27;19928;-88
2022/03/30 00:15:06;;;;;;;;;;;;;;;9.09;100.00;98076.66;5098972;27;20386;-89
2022/03/30 00:17:32;;;;;;;;;;;;;;;9.31;100.00;98078.34;5094964;27;19920;-89
2022/03/30 00:19:59;;;;;;;;;;;;;;;10.42;100.00;98064.91;5080634;27;19920;-89
2022/03/30 00:22:25;;;;;;;;;;;;;;;10.08;100.00;98067.31;5081499;27;19930;-89
2022/03/30 00:24:50;;;;;;;;;;;;;;;9.65;100.00;98064.91;5078853;27;19919;-88
2022/03/30 00:27:15;;;;;;;;;;;;;;;10.37;100.00;98053.97;5080655;28;20401;-87
2022/03/30 00:29:41;;;;;;;;;;;;;;;8.75;100.00;98062.59;5095462;28;19926;-87
2022/03/30 00:32:06;;;;;;;;;;;;;;;9.24;100.00;98067.50;5081863;28;19959;-89
2022/03/30 00:34:31;;;;;;;;;;;;;;;9.95;100.00;98065.28;5081782;27;19915;-88
2022/03/30 00:36:57;;;;;;;;;;;;;;;10.89;100.00;98051.50;5080972;28;19922;-88
2022/03/30 00:39:22;;;;;;;;;;;;;;;10.95;100.00;98052.13;5096270;28;19923;-88
2022/03/30 00:41:47;;;;;;;;;;;;;;;10.09;100.00;98049.25;5079876;28;20263;-87
2022/03/30 00:44:13;;;;;;;;;;;;;;;9.72;100.00;98060.34;5078635;28;19955;-88
2022/03/30 00:46:39;;;;;;;;;;;;;;;9.61;100.00;98048.78;5098793;28;19997;-88
2022/03/30 00:49:04;;;;;;;;;;;;;;;8.74;100.00;98050.69;5078071;28;19923;-88
2022/03/30 00:51:30;;;;;;;;;;;;;;;10.36;100.00;98042.03;5079502;28;20374;-88
2022/03/30 00:53:55;;;;;;;;;;;;;;;10.70;100.00;98037.00;5080806;28;19972;-89
2022/03/30 00:56:21;;;;;;;;;;;;;;;11.30;100.00;98030.59;5081455;28;19922;-88
2022/03/30 00:58:46;;;;;;;;;;;;;;;11.29;100.00;98026.38;5079688;28;20031;-88
2022/03/30 01:01:11;;;;;;;;;;;;;;;11.43;100.00;98025.66;5080244;28;19933;-89
2022/03/30 01:03:37;;;;;;;;;;;;;;;11.55;100.00;98021.63;5082062;28;19920;-88
2022/03/30 01:06:02;;;;;;;;;;;;;;;11.44;100.00;98021.31;5081602;28;19915;-88
2022/03/30 01:08:28;;;;;;;;;;;;;;;11.21;100.00;98020.75;5080460;28;20015;-89
2022/03/30 01:10:53;;;;;;;;;;;;;;;11.40;100.00;98020.63;5077811;28;19919;-89
2022/03/30 01:13:18;;;;;;;;;;;;;;;10.88;100.00;98023.28;5078064;28;20556;-89
2022/03/30 01:15:45;;;;;;;;;;;;;;;10.98;100.00;98021.91;5078939;28;19920;-89
2022/03/30 01:18:10;;;;;;;;;;;;;;;10.89;100.00;98018.03;5081464;28;20394;-88
2022/03/30 01:20:35;;;;;;;;;;;;;;;10.86;100.00;98019.94;5077300;28;19928;-88
2022/03/30 01:23:01;;;;;;;;;;;;;;;10.94;100.00;98014.41;5097800;28;20007;-88
2022/03/30 01:25:26;;;;;;;;;;;;;;;10.97;100.00;98006.50;5075929;28;19935;-88
2022/03/30 01:27:51;;;;;;;;;;;;;;;10.84;100.00;98001.97;5095095;28;19973;-88
2022/03/30 01:33:02;;;;;;;;;;;;;;;9.68;100.00;98002.25;5099723;28;20105;-89
2022/03/30 01:35:28;;;;;;;;;;;;;;;10.02;100.00;98001.56;5073533;28;19935;-89
2022/03/30 01:37:53;;;;;;;;;;;;;;;10.45;100.00;97984.16;5089734;28;19924;-88
2022/03/30 01:40:18;;;;;;;;;;;;;;;9.04;100.00;97995.56;5080871;28;19945;-88
2022/03/30 01:42:44;;;;;;;;;;;;;;;9.71;100.00;97992.63;5081341;28;20293;-88
2022/03/30 01:45:11;;;;;;;;;;;;;;;10.05;100.00;97986.78;5082405;27;19924;-88
2022/03/30 01:47:38;;;;;;;;;;;;;;;10.49;100.00;97974.53;5084627;27;19962;-88
2022/03/30 01:50:05;;;;;;;;;;;;;;;10.50;100.00;97976.19;5083485;27;19930;-88
2022/03/30 01:52:30;;;;;;;;;;;;;;;9.25;100.00;97983.56;5084051;27;19924;-89
2022/03/30 01:54:55;;;;;;;;;;;;;;;10.32;100.00;97983.88;5082245;27;20206;-89
2022/03/30 01:57:21;;;;;;;;;;;;;;;10.61;100.00;97973.94;5082698;27;19920;-88
2022/03/30 01:59:46;;;;;;;;;;;;;;;10.34;100.00;97964.06;5084688;27;19931;-88
2022/03/30 02:02:12;;;;;;;;;;;;;;;10.72;100.00;97961.38;5081647;27;19916;-88
2022/03/30 02:04:37;;;;;;;;;;;;;;;11.02;100.00;97963.34;5096772;27;19919;-88
2022/03/30 02:07:03;;;;;;;;;;;;;;;11.22;100.00;97955.44;5086633;27;20050;-88
2022/03/30 02:09:28;;;;;;;;;;;;;;;11.09;100.00;97952.63;5082934;27;19924;-88
2022/03/30 02:11:54;;;;;;;;;;;;;;;10.96;100.00;97948.19;5083210;27;19934;-88
2022/03/30 02:14:20;;;;;;;;;;;;;;;10.94;100.00;97950.00;5086263;27;19919;-87
2022/03/30 02:16:45;;;;;;;;;;;;;;;10.53;100.00;97950.31;5081840;27;20429;-89
2022/03/30 02:19:11;;;;;;;;;;;;;;;10.91;100.00;97945.00;5085420;27;20392;-88
2022/03/30 02:21:36;;;;;;;;;;;;;;;10.72;100.00;97940.78;5083404;27;19946;-88
2022/03/30 02:24:02;;;;;;;;;;;;;;;10.86;100.00;97938.34;5083536;27;20026;-87
2022/03/30 02:26:28;;;;;;;;;;;;;;;10.75;100.00;97935.47;5082456;27;19920;-88
2022/03/30 02:28:54;;;;;;;;;;;;;;;10.53;100.00;97937.44;5082118;27;20374;-88
2022/03/30 02:31:19;;;;;;;;;;;;;;;10.51;100.00;97934.09;5081321;27;19926;-89
2022/03/30 02:33:45;;;;;;;;;;;;;;;10.61;100.00;97937.91;5081013;27;19915;-89
2022/03/30 02:36:10;;;;;;;;;;;;;;;10.40;100.00;97935.47;5083453;27;19964;-89
2022/03/30 02:38:36;;;;;;;;;;;;;;;10.63;100.00;97926.63;5100033;27;19944;-88
2022/03/30 02:41:03;;;;;;;;;;;;;;;10.37;100.00;97917.56;5081741;27;20081;-87
2022/03/30 02:43:28;;;;;;;;;;;;;;;10.41;100.00;97919.09;5083736;27;19919;-89
2022/03/30 02:45:53;;;;;;;;;;;;;;;10.67;100.00;97916.97;5080924;27;19922;-89
2022/03/30 02:48:18;;;;;;;;;;;;;;;10.76;100.00;97911.38;5083493;27;19922;-88
2022/03/30 02:50:45;;;;;;;;;;;;;;;10.64;100.00;97906.84;5081607;27;20386;-89
2022/03/30 02:53:10;;;;;;;;;;;;;;;10.25;100.00;97910.44;5082470;27;20420;-89
2022/03/30 02:55:36;;;;;;;;;;;;;;;10.31;100.00;97909.31;5080945;28;19931;-87
2022/03/30 02:58:01;;;;;;;;;;;;;;;10.38;100.00;97908.13;5084414;27;19920;-89
2022/03/30 03:00:28;;;;;;;;;;;;;;;10.51;100.00;97901.47;5083143;27;19924;-87
2022/03/30 03:02:53;;;;;;;;;;;;;;;10.58;100.00;97891.69;5081594;27;20336;-89
2022/03/30 03:05:18;;;;;;;;;;;;;;;10.54;100.00;97895.34;5081895;27;19920;-89
2022/03/30 03:07:43;;;;;;;;;;;;;;;10.35;100.00;97898.81;5098399;27;19920;-89
2022/03/30 03:10:09;;;;;;;;;;;;;;;10.48;100.00;97890.50;5099452;27;20064;-89
2022/03/30 03:12:35;;;;;;;;;;;;;;;10.56;100.00;97889.22;5082366;27;19926;-89
2022/03/30 03:15:00;;;;;;;;;;;;;;;10.44;100.00;97885.47;5080974;27;19975;-89
2022/03/30 03:17:25;;;;;;;;;;;;;;;10.32;100.00;97883.53;5082872;27;19920;-89
2022/03/30 03:19:50;;;;;;;;;;;;;;;10.64;100.00;97883.66;5080411;27;19967;-89
2022/03/30 03:22:16;;;;;;;;;;;;;;;10.36;100.00;97877.31;5099373;27;20652;-88
2022/03/30 03:24:41;;;;;;;;;;;;;;;10.16;100.00;97877.44;5082998;27;19958;-89
2022/03/30 03:27:06;;;;;;;;;;;;;;;10.11;100.00;97877.66;5080935;27;20393;-88
2022/03/30 03:29:31;;;;;;;;;;;;;;;10.11;100.00;97867.38;5083003;27;19930;-88
2022/03/30 03:31:57;;;;;;;;;;;;;;;10.21;100.00;97857.44;5099289;27;20327;-88
2022/03/30 03:34:22;;;;;;;;;;;;;;;10.33;100.00;97867.19;5085369;27;20382;-88
2022/03/30 03:36:47;;;;;;;;;;;;;;;10.33;100.00;97862.03;5100002;27;20192;-88
2022/03/30 03:39:13;;;;;;;;;;;;;;;10.11;100.00;97864.78;5082750;27;19916;-89
2022/03/30 03:41:38;;;;;;;;;;;;;;;9.95;100.00;97862.13;5092208;27;20041;-88
2022/03/30 03:44:03;;;;;;;;;;;;;;;10.13;100.00;97854.44;5080775;27;19915;-89
2022/03/30 03:46:29;;;;;;;;;;;;;;;10.14;100.00;97861.22;5083294;27;20413;-89
2022/03/30 03:48:55;;;;;;;;;;;;;;;10.14;100.00;97856.91;5082156;27;19937;-88
2022/03/30 03:51:20;;;;;;;;;;;;;;;10.16;100.00;97859.41;5083573;27;20416;-89
2022/03/30 03:53:46;;;;;;;;;;;;;;;10.14;100.00;97859.47;5084533;27;20078;-89
2022/03/30 03:56:11;;;;;;;;;;;;;;;10.26;100.00;97860.63;5098211;27;19920;-90
2022/03/30 03:58:36;;;;;;;;;;;;;;;10.06;100.00;97856.47;5083523;27;20340;-87
2022/03/30 04:01:01;;;;;;;;;;;;;;;7.39;100.00;97876.38;5094758;27;20010;-89
2022/03/30 04:03:27;;;;;;;;;;;;;;;7.22;100.00;97874.41;5083741;27;20451;-88
2022/03/30 04:05:52;;;;;;;;;;;;;;;7.29;100.00;97880.97;5078697;27;20412;-88
2022/03/30 04:08:17;;;;;;;;;;;;;;;6.68;100.00;97884.00;5096555;27;19919;-87
2022/03/30 04:10:43;;;;;;;;;;;;;;;7.33;100.00;97881.69;5099107;27;20019;-88
2022/03/30 04:13:09;;;;;;;;;;;;;;;6.80;100.00;97881.91;5079089;27;20381;-88
2022/03/30 04:15:35;;;;;;;;;;;;;;;6.65;100.00;97883.25;5084691;27;19918;-88
2022/03/30 04:18:00;;;;;;;;;;;;;;;8.25;100.00;97882.44;5097936;28;19911;-88
2022/03/30 04:20:26;;;;;;;;;;;;;;;8.75;100.00;97877.78;5082280;27;19972;-89
2022/03/30 04:22:51;;;;;;;;;;;;;;;8.33;100.00;97873.53;5099937;27;19927;-89
2022/03/30 04:25:16;;;;;;;;;;;;;;;8.49;100.00;97872.94;5082085;28;20168;-89
2022/03/30 04:27:48;;;;;;;;;;;;;;;8.96;100.00;97865.78;5082931;27;19919;-89
2022/03/30 04:30:14;;;;;;;;;;;;;;;8.25;100.00;97865.31;5081851;28;19968;-88
2022/03/30 04:32:40;;;;;;;;;;;;;;;9.14;100.00;97858.97;5098065;28;19919;-89
2022/03/30 04:35:05;;;;;;;;;;;;;;;9.30;100.00;97856.56;5098792;27;19930;-88
2022/03/30 04:37:31;;;;;;;;;;;;;;;9.50;100.00;97858.22;5078454;27;19942;-89
2022/03/30 04:39:56;;;;;;;;;;;;;;;9.53;100.00;97849.53;5078639;28;19923;-89
2022/03/30 04:42:21;;;;;;;;;;;;;;;9.23;100.00;97852.59;5078759;27;19923;-88
2022/03/30 04:44:47;;;;;;;;;;;;;;;9.09;100.00;97845.50;5077913;28;19920;-89
2022/03/30 04:47:12;;;;;;;;;;;;;;;9.18;100.00;97844.28;5080913;28;19957;-87
2022/03/30 04:49:37;;;;;;;;;;;;;;;9.18;100.00;97845.09;5081619;28;19922;-89
2022/03/30 04:52:03;;;;;;;;;;;;;;;9.26;100.00;97839.63;5077972;28;20027;-88
2022/03/30 04:54:29;;;;;;;;;;;;;;;9.20;100.00;97842.47;5081897;28;19915;-87
2022/03/30 04:56:54;;;;;;;;;;;;;;;9.21;100.00;97838.97;5080488;28;20007;-87
2022/03/30 04:59:19;;;;;;;;;;;;;;;9.16;100.00;97834.06;5079441;28;19923;-88
2022/03/30 05:01:45;;;;;;;;;;;;;;;9.13;100.00;97841.91;5096081;28;19919;-88
2022/03/30 05:04:10;;;;;;;;;;;;;;;9.02;100.00;97831.28;5081097;28;20302;-89
2022/03/30 05:06:35;;;;;;;;;;;;;;;8.95;100.00;97832.47;5080606;28;20043;-87
2022/03/30 05:09:01;;;;;;;;;;;;;;;8.50;100.00;97841.22;5097575;28;19965;-88
2022/03/30 05:11:26;;;;;;;;;;;;;;;8.79;100.00;97840.81;5095909;28;19962;-88
2022/03/30 05:13:51;;;;;;;;;;;;;;;8.88;100.00;97839.59;5077484;28;19979;-89
2022/03/30 05:16:17;;;;;;;;;;;;;;;8.91;100.00;97839.44;5082039;28;20382;-88
2022/03/30 05:18:42;;;;;;;;;;;;;;;9.00;100.00;97835.66;5081186;28;19912;-89
2022/03/30 05:21:07;;;;;;;;;;;;;;;8.90;100.00;97830.09;5085503;27;20154;-88
2022/03/30 05:23:36;;;;;;;;;;;;;;;8.26;100.00;97843.91;5100505;27;20030;-89
2022/03/30 05:26:02;;;;;;;;;;;;;;;7.85;100.00;97836.16;5082983;27;19916;-88
2022/03/30 05:28:27;;;;;;;;;;;;;;;8.02;100.00;97838.03;5083312;27;20301;-88
2022/03/30 05:30:53;;;;;;;;;;;;;;;8.11;100.00;97829.13;5081139;27;19972;-87
2022/03/30 05:33:18;;;;;;;;;;;;;;;7.78;100.00;97833.88;5084952;27;20339;-88
2022/03/30 05:35:43;;;;;;;;;;;;;;;7.72;100.00;97837.53;5079997;28;19967;-89
2022/03/30 05:38:09;;;;;;;;;;;;;;;7.92;100.00;97837.56;5102847;27;20320;-88
2022/03/30 05:40:34;;;;;;;;;;;;;;;7.23;100.00;97834.25;5100893;27;19998;-89
2022/03/30 05:42:59;;;;;;;;;;;;;;;7.39;100.00;97843.06;5085195;27;19911;-89
2022/03/30 05:45:25;;;;;;;;;;;;;;;6.81;100.00;97838.34;5083945;27;19975;-89
2022/03/30 05:47:50;;;;;;;;;;;;;;;7.20;100.00;97839.50;5084355;27;20302;-88
2022/03/30 05:50:16;;;;;;;;;;;;;;;7.63;100.00;97838.72;5082615;27;19943;-88
2022/03/30 05:52:41;;;;;;;;;;;;;;;7.39;100.00;97840.50;5084471;27;20386;-88
2022/03/30 05:55:08;;;;;;;;;;;;;;;7.18;100.00;97842.13;5100603;27;19927;-88
2022/03/30 05:57:34;;;;;;;;;;;;;;;7.73;100.00;97841.75;5082872;27;19920;-88
2022/03/30 05:59:59;;;;;;;;;;;;;;;7.22;100.00;97837.72;5080571;27;19911;-88
2022/03/30 06:02:25;;;;;;;;;;;;;;;7.16;100.00;97831.13;5081467;27;20390;-88
2022/03/30 06:04:50;;;;;;;;;;;;;;;7.16;100.00;97838.81;5081623;27;19964;-87
2022/03/30 06:07:16;;;;;;;;;;;;;;;7.41;100.00;97838.72;5082877;27;19912;-88
2022/03/30 06:09:41;;;;;;;;;;;;;;;7.84;100.00;97836.22;5083998;27;20448;-88
2022/03/30 06:12:46;;;;;;;;;;;;;;;7.90;100.00;97843.66;5083842;27;19994;-87
2022/03/30 06:15:12;;;;;;;;;;;;;;;8.10;100.00;97833.44;5081538;28;19915;-87
2022/03/30 06:17:37;;;;;;;;;;;;;;;8.16;100.00;97837.47;5082098;27;20294;-88
2022/03/30 06:20:04;;;;;;;;;;;;;;;9.23;100.00;97838.91;5099407;27;20402;-87
2022/03/30 06:22:36;;;;;;;;;;;;;;;9.67;100.00;97836.03;5084238;27;19930;-87
2022/03/30 06:25:01;;;;;;;;;;;;;;;9.90;100.00;97827.22;5078546;27;20018;-87
2022/03/30 06:27:27;;;;;;;;;;;;;;;10.07;100.00;97834.13;5084923;27;20131;-88
2022/03/30 06:29:52;;;;;;;;;;;;;;;10.07;100.00;97829.00;5080045;27;19923;-89
2022/03/30 06:32:19;;;;;;;;;;;;;;;10.18;100.00;97824.16;5081258;27;19920;-88
2022/03/30 06:34:44;;;;;;;;;;;;;;;8.61;100.00;97833.91;5082747;27;19998;-87
2022/03/30 06:37:09;;;;;;;;;;;;;;;7.47;100.00;97845.31;5081098;27;20018;-87
2022/03/30 06:39:35;;;;;;;;;;;;;;;8.10;100.00;97845.44;5079226;27;20393;-89
2022/03/30 06:42:01;;;;;;;;;;;;;;;6.86;100.00;97848.41;5080443;27;19969;-88
2022/03/30 07:18:29;;;;;;;;;;;;;;;5.92;100.00;97866.84;5047778;28;19919;-58
2022/03/30 07:20:55;;;;;;;;;;;;;;;5.83;100.00;97857.75;5050285;28;20484;-59
2022/03/30 07:23:23;;;;;;;;;;;;;;;5.81;100.00;97864.63;5051115;28;19967;-59
2022/03/30 07:25:48;;;;;;;;;;;;;;;6.01;100.00;97860.66;5051602;28;19920;-59
2022/03/30 07:28:15;;;;;;;;;;;;;;;6.48;100.00;97861.66;5051078;28;20285;-58
2022/03/30 07:30:43;;;;;;;;;;;;;;;6.91;100.00;97869.53;5051050;28;19959;-59
2022/03/30 07:33:08;;;;;;;;;;;;;;;7.48;100.00;97864.91;5049583;28;19948;-61
2022/03/30 07:35:33;;;;;;;;;;;;;;;7.36;100.00;97865.38;5050884;28;19956;-60
2022/03/30 07:38:00;;;;;;;;;;;;;;;8.56;100.00;97857.22;5051240;28;19912;-60
2022/03/30 07:40:26;;;;;;;;;;;;;;;7.81;100.00;97860.22;5050974;28;20371;-59
2022/03/30 07:42:52;;;;;;;;;;;;;;;8.25;100.00;97861.91;5049200;28;19919;-59
2022/03/30 07:48:29;;;;;;;;;;;;;;;9.32;100.00;97844.47;5068206;28;20056;-60
2022/03/30 07:50:54;;;;;;;;;;;;;;;8.66;100.00;97849.94;5091096;28;19926;-59
2022/03/30 07:53:20;;;;;;;;;;;;;;;8.82;100.00;97846.72;5090936;28;20109;-60
2022/03/30 07:55:47;;;;;;;;;;;;;;;9.79;100.00;97845.75;5090993;28;19912;-60
2022/03/30 07:58:13;;;;;;;;;;;;;;;10.00;100.00;97849.03;5090722;28;19916;-58
2022/03/30 08:00:39;;;;;;;;;;;;;;;8.13;100.00;97853.81;5090650;28;19919;-59
2022/03/30 08:03:08;;;;;;;;;;;;;;;7.07;100.00;97859.59;5090975;28;19958;-59
2022/03/30 08:08:55;;;;;;;;;;;;;;;8.42;100.00;97863.84;5087182;28;20013;-59
2022/03/30 08:11:21;;;;;;;;;;;;;;;8.97;100.00;97862.28;5091001;28;20005;-61
2022/03/30 08:19:52;;;;;;;;;;;;;;;8.33;100.00;97863.28;5090271;28;19919;-61
2022/03/30 08:22:28;;;;;;;;;;;;;;;10.58;100.00;97850.50;5090338;28;19916;-59
2022/03/30 08:24:54;;;;;;;;;;;;;;;9.05;100.00;97843.97;5090395;28;19912;-59
2022/03/30 08:33:33;;;;;;;;;;;;;;;9.86;100.00;97852.28;5087520;28;20102;-60
2022/03/30 08:39:11;;;;;;;;;;;;;;;10.04;100.00;97846.25;5087555;28;19957;-59
2022/03/30 08:41:39;;;;;;;;;;;;;;;10.22;100.00;97835.97;5089778;28;19919;-59
2022/03/30 08:44:05;;;;;;;;;;;;;;;10.21;100.00;97832.53;5090555;28;20392;-58
2022/03/30 08:49:37;;;;;;;;;;;;;;;11.06;100.00;97830.84;5088044;28;20008;-60
2022/03/30 08:58:30;;;;;;;;;;;;;;;11.87;100.00;97817.88;5089626;28;20288;-58
2022/03/30 09:07:04;;;;;;;;;;;;;;;9.93;100.00;97833.06;5089813;28;19961;-60
2022/03/30 09:09:30;;;;;;;;;;;;;;;9.47;100.00;97845.53;5094205;28;19912;-60
2022/03/30 09:11:57;;;;;;;;;;;;;;;11.75;100.00;97841.78;5093924;28;19912;-58
2022/03/30 09:14:24;;;;;;;;;;;;;;;9.97;100.00;97849.19;5092843;28;20007;-60
2022/03/30 09:29:09;;;;;;;;;;;;;;;9.17;100.00;97843.44;5089810;28;19987;-60
2022/03/30 09:50:07;;;;;;;;;;;;;;;11.57;100.00;97810.94;5072220;28;20436;-60
2022/03/30 09:52:33;;;;;;;;;;;;;;;11.43;100.00;97809.09;5072757;28;19916;-60
2022/03/30 09:58:30;;;;;;;;;;;;;;;12.36;100.00;97804.75;5069866;28;19959;-60
2022/03/30 10:19:28;;;;;;;;;;;;;;;12.20;100.00;97767.84;5050019;28;19913;-60
2022/03/30 10:21:54;;;;;;;;;;;;;;;12.21;100.00;97769.53;5052658;28;20370;-59
2022/03/30 10:24:28;;;;;;;;;;;;;;;12.17;100.00;97766.28;5052489;28;19912;-59
2022/03/30 10:39:17;;;;;;;;;;;;;;;12.55;100.00;97738.22;4988561;28;19917;-58
2022/03/30 10:41:49;;;;;;;;;;;;;;;11.86;100.00;97751.72;4990385;28;19936;-60
2022/03/30 10:44:34;;;;;;;;;;;;;;;13.06;100.00;97742.03;4990269;28;19914;-60
2022/03/30 10:47:09;;;;;;;;;;;;;;;12.61;100.00;97739.56;4990271;28;19914;-60
2022/03/30 10:49:55;;;;;;;;;;;;;;;14.27;100.00;97720.44;4990008;28;19961;-59
2022/03/30 10:52:34;;;;;;;;;;;;;;;13.34;100.00;97716.13;4989819;28;20013;-59
2022/03/30 10:55:14;;;;;;;;;;;;;;;13.92;100.00;97710.69;4990413;28;20016;-60
2022/03/30 10:57:43;;;;;;;;;;;;;;;14.59;100.00;97708.72;4990265;28;19921;-59
2022/03/30 11:00:15;;;;;;;;;;;;;;;14.82;100.00;97706.31;4990075;28;19920;-60
2022/03/30 11:02:40;;;;;;;;;;;;;;;13.18;100.00;97710.22;4990123;28;19914;-60
2022/03/30 11:05:09;;;;;;;;;;;;;;;15.16;100.00;97703.91;4989977;28;19921;-59
2022/03/30 11:07:34;;;;;;;;;;;;;;;16.67;100.00;97688.38;5033187;28;19913;-61
2022/03/30 11:10:19;;;;;;;;;;;;;;;13.49;100.00;97703.97;5051704;28;19919;-60
2022/03/30 11:13:00;;;;;;;;;;;;;;;11.87;100.00;97709.53;5062882;28;20019;-61
2022/03/30 11:15:25;;;;;;;;;;;;;;;12.87;100.00;97695.84;5071457;28;19912;-58
2022/03/30 11:17:51;;;;;;;;;;;;;;;13.92;100.00;97692.56;5056942;28;19913;-60
2022/03/30 11:20:16;;;;;;;;;;;;;;;15.26;100.00;97689.38;5051588;28;19920;-59
2022/03/30 11:22:44;;;;;;;;;;;;;;;16.70;100.00;97670.75;5051407;28;19919;-59
2022/03/30 11:25:22;;;;;;;;;;;;;;;14.10;94.47;97680.16;5051487;28;19920;-60
2022/03/30 11:27:57;;;;;;;;;;;;;;;13.11;100.00;97688.28;5051475;28;19920;-59
2022/03/30 11:30:23;;;;;;;;;;;;;;;13.55;100.00;97687.25;5051270;28;19958;-60
2022/03/30 11:32:51;;;;;;;;;;;;;;;12.95;100.00;97683.25;5050997;28;19931;-59
2022/03/30 11:35:17;;;;;;;;;;;;;;;13.07;100.00;97676.47;5051153;28;20632;-60
2022/03/30 11:37:44;;;;;;;;;;;;;;;12.65;100.00;97684.22;5051265;28;19913;-60
2022/03/30 11:40:16;;;;;;;;;;;;;;;12.34;100.00;97685.28;5051057;28;19916;-59
2022/03/30 11:42:43;;;;;;;;;;;;;;;12.89;100.00;97673.31;5050842;28;19912;-60
2022/03/30 11:45:21;;;;;;;;;;;;;;;16.55;100.00;97651.16;5051071;28;19917;-60
2022/03/30 11:47:57;;;;;;;;;;;;;;;15.43;95.37;97659.59;5052920;28;19920;-59
2022/03/30 11:53:47;;;;;;;;;;;;;;;15.61;95.90;97662.63;5067263;28;20439;-60
2022/03/30 11:56:12;;;;;;;;;;;;;;;14.82;98.44;97663.09;5070742;28;19920;-60
2022/03/30 11:58:38;;;;;;;;;;;;;;;16.92;92.73;97653.50;5081509;28;19928;-60
2022/03/30 12:01:05;;;;;;;;;;;;;;;18.33;88.49;97644.50;5090028;28;19934;-59
2022/03/30 12:03:30;;;;;;;;;;;;;;;13.76;98.09;97664.28;5090732;28;19916;-60
2022/03/30 12:05:57;;;;;;;;;;;;;;;13.00;100.00;97654.53;5090576;28;20301;-60
2022/03/30 12:20:46;;;;;;;;;;;;;;;16.68;92.14;97636.25;4991866;28;19925;-59
2022/03/30 12:23:12;;;;;;;;;;;;;;;17.52;81.05;97633.88;5090560;28;19912;-59
2022/03/30 12:25:39;;;;;;;;;;;;;;;15.93;82.01;97633.44;5090534;28;19916;-60
2022/03/30 12:28:05;;;;;;;;;;;;;;;17.19;85.68;97626.22;5090045;28;19920;-59
2022/03/30 12:30:32;;;;;;;;;;;;;;;14.57;89.02;97642.41;5090190;28;20369;-60
2022/03/30 12:32:57;;;;;;;;;;;;;;;14.20;100.00;97637.16;5068554;28;19920;-61
2022/03/30 12:35:24;;;;;;;;;;;;;;;14.99;97.55;97629.94;5068927;28;19912;-60
2022/03/30 12:37:49;;;;;;;;;;;;;;;14.60;98.28;97624.91;5069952;28;19912;-60
2022/03/30 12:40:20;;;;;;;;;;;;;;;15.44;86.89;97620.59;5070353;28;19912;-60
2022/03/30 12:42:46;;;;;;;;;;;;;;;17.43;88.70;97613.00;5070074;28;20378;-59
2022/03/30 12:45:14;;;;;;;;;;;;;;;16.68;78.14;97617.25;5102144;22;19974;-58
2022/03/30 12:47:44;;;;;;;;;;;;;;;15.79;86.69;97609.34;5109428;27;19969;-58
2022/03/30 12:50:11;;;;;;;;;;;;;;;14.95;91.01;97618.97;5103983;28;20031;-58
2022/03/30 12:52:40;;;;;;;;;;;;;;;15.03;97.29;97627.03;5106700;28;20613;-57
2022/03/30 12:55:16;;;;;;;;;;;;;;;13.73;94.03;97623.09;5105984;28;19929;-56
2022/03/30 12:57:48;;;;;;;;;;;;;;;14.51;95.49;97609.16;5087817;28;19919;-57
2022/03/30 13:00:14;;;;;;;;;;;;;;;14.93;85.14;97610.47;5108491;28;20206;-58
2022/03/30 13:02:40;;;;;;;;;;;;;;;17.51;90.97;97589.75;5106842;28;20533;-58
2022/03/30 13:08:31;;;;;;;;;;;;;;;15.88;84.84;97594.84;5107575;28;20617;-58
2022/03/30 13:20:12;;;;;;;;;;;;;;;17.56;77.45;97572.81;5105485;27;19915;-58
2022/03/30 13:50:11;;;;;;;;;;;;;;;16.76;77.13;97539.44;5103459;27;20300;-58
2022/03/30 13:52:40;;;;;;;;;;;;;;;16.51;74.37;97538.84;5107221;27;20368;-58
2022/03/30 13:58:34;;;;;;;;;;;;;;;14.49;81.83;97549.66;5106256;27;19970;-58
2022/03/30 14:01:02;;;;;;;;;;;;;;;14.40;85.54;97539.97;5111545;27;19919;-57
2022/03/30 14:03:31;;;;;;;;;;;;;;;16.09;81.13;97527.47;5091414;27;19942;-58
2022/03/30 14:18:32;;;;;;;;;;;;;;;17.59;78.54;97514.47;5107895;27;20001;-57
2022/03/30 14:30:10;;;;;;;;;;;;;;;16.49;78.97;97519.13;5112785;27;20372;-58
2022/03/30 14:38:47;;;;;;;;;;;;;;;16.59;73.64;97504.44;5110270;27;19919;-58
2022/03/30 14:50:20;;;;;;;;;;;;;;;14.10;74.50;97499.78;5109833;27;19949;-57
2022/03/30 14:52:46;;;;;;;;;;;;;;;14.93;77.52;97501.59;5109933;27;19916;-58
2022/03/30 14:55:12;;;;;;;;;;;;;;;15.48;79.65;97489.66;5111022;27;19912;-57
2022/03/30 14:57:37;;;;;;;;;;;;;;;14.76;87.30;97504.63;5107893;27;19912;-58
2022/03/30 15:00:03;;;;;;;;;;;;;;;14.32;83.49;97500.81;5089222;27;20458;-58
2022/03/30 15:02:29;;;;;;;;;;;;;;;14.94;80.43;97490.31;5107421;27;19915;-58
2022/03/30 15:04:54;;;;;;;;;;;;;;;14.63;78.96;97489.94;5109067;27;20300;-58
2022/03/30 15:10:22;;;;;;;;;;;;;;;15.94;74.08;97481.91;5110716;27;19942;-57
2022/03/30 15:12:47;;;;;;;;;;;;;;;16.06;81.11;97480.97;5110401;27;19916;-56
2022/03/30 15:15:13;;;;;;;;;;;;;;;16.51;76.98;97481.66;5104905;27;19911;-56
2022/03/30 15:17:38;;;;;;;;;;;;;;;14.95;68.26;97486.75;5106327;27;19928;-58
2022/03/30 15:20:05;;;;;;;;;;;;;;;14.69;75.51;97488.69;5107147;27;19916;-57
2022/03/30 15:22:32;;;;;;;;;;;;;;;14.99;74.42;97485.59;5112000;27;20342;-56
2022/03/30 15:24:57;;;;;;;;;;;;;;;15.17;72.90;97482.59;5108166;27;19920;-56
2022/03/30 15:27:23;;;;;;;;;;;;;;;16.68;72.63;97482.91;5109347;27;19923;-56
2022/03/30 15:29:50;;;;;;;;;;;;;;;14.69;69.41;97475.72;5106494;27;19912;-57
2022/03/30 15:32:16;;;;;;;;;;;;;;;14.68;72.92;97481.00;5088991;27;19924;-58
2022/03/30 15:34:42;;;;;;;;;;;;;;;14.37;74.39;97478.03;5108508;27;20015;-57
2022/03/30 15:37:07;;;;;;;;;;;;;;;15.38;71.53;97478.34;5108922;27;20018;-58
2022/03/30 15:39:42;;;;;;;;;;;;;;;14.81;70.17;97480.00;5106621;27;19919;-58
2022/03/30 15:42:07;;;;;;;;;;;;;;;15.11;68.68;97470.06;5088347;27;19965;-58
2022/03/30 15:44:34;;;;;;;;;;;;;;;16.00;70.40;97473.66;5086522;27;20974;-58
2022/03/30 15:47:00;;;;;;;;;;;;;;;15.73;70.58;97472.25;5073918;27;19916;-58
2022/03/30 15:49:25;;;;;;;;;;;;;;;15.24;68.36;97470.81;5105695;27;20309;-58
2022/03/30 15:51:50;;;;;;;;;;;;;;;15.95;70.30;97465.41;5107700;27;19977;-58
2022/03/30 15:54:18;;;;;;;;;;;;;;;16.05;68.62;97468.91;5096664;27;19935;-58
2022/03/30 15:56:43;;;;;;;;;;;;;;;15.19;69.34;97473.75;5104122;27;19927;-58
2022/03/30 15:59:08;;;;;;;;;;;;;;;15.99;63.97;97469.41;5106804;27;20311;-58
2022/03/30 16:01:33;;;;;;;;;;;;;;;16.23;66.51;97477.84;5104804;27;19915;-58
2022/03/30 16:10:08;;;;;;;;;;;;;;;15.51;73.76;97472.22;5098650;27;20301;-57
2022/03/30 16:12:33;;;;;;;;;;;;;;;14.71;76.71;97471.25;5082712;27;19930;-57
2022/03/30 16:14:59;;;;;;;;;;;;;;;14.90;77.25;97465.53;5107221;27;19911;-58
2022/03/30 16:20:28;;;;;;;;;;;;;;;14.99;84.81;97466.63;5100471;27;19937;-57
2022/03/30 16:22:53;;;;;;;;;;;;;;;14.77;80.12;97464.78;5090100;27;19927;-59
2022/03/30 16:25:20;;;;;;;;;;;;;;;14.91;81.54;97469.78;5102644;27;19924;-59
2022/03/30 16:27:45;;;;;;;;;;;;;;;15.03;79.72;97466.28;5108540;27;20493;-59
2022/03/30 16:30:12;;;;;;;;;;;;;;;13.90;79.59;97483.03;5107441;27;19924;-58
2022/03/30 16:32:41;;;;;;;;;;;;;;;13.53;78.97;97472.66;5089203;27;20165;-59
2022/03/30 16:35:06;;;;;;;;;;;;;;;14.31;82.80;97473.28;5107455;27;20322;-59
2022/03/30 16:37:35;;;;;;;;;;;;;;;14.11;78.38;97472.13;5104098;27;19919;-59
2022/03/30 16:58:34;;;;;;;;;;;;;;;12.87;98.99;97471.06;5024464;28;20312;-59
2022/03/30 17:28:40;;;;;;;;;;;;;;;11.51;100.00;97496.72;5056525;27;20434;-59
2022/03/30 17:58:35;;;;;;;;;;;;;;;10.98;100.00;97516.19;5105550;27;19949;-58
2022/03/30 18:04:03;;;;;;;;;;;;;;;11.67;100.00;97512.09;5109390;27;19984;-58